createdAt,value
2023-02-11T00:02:01.579Z,0.60
2023-02-11T00:04:28.489Z,0.60
2023-02-11T00:06:55.528Z,0.70
2023-02-11T00:09:22.427Z,0.70
2023-02-11T00:11:49.351Z,0.70
2023-02-11T00:14:16.273Z,0.70
2023-02-11T00:16:43.409Z,0.70
2023-02-11T00:19:10.395Z,0.80
2023-02-11T00:21:37.355Z,0.80
2023-02-11T00:24:04.400Z,0.80
2023-02-11T00:26:33.014Z,0.80
2023-02-11T00:29:01.002Z,0.80
2023-02-11T00:31:28.475Z,0.80
2023-02-11T00:33:55.581Z,0.80
2023-02-11T00:36:23.713Z,0.80
2023-02-11T00:38:51.373Z,0.80
2023-02-11T00:41:18.806Z,0.80
2023-02-11T00:43:46.359Z,0.80
2023-02-11T00:46:13.698Z,0.80
2023-02-11T00:48:40.744Z,0.80
2023-02-11T00:51:07.970Z,0.80
2023-02-11T00:53:35.053Z,0.80
2023-02-11T00:56:02.053Z,0.70
2023-02-11T00:58:29.127Z,0.70
2023-02-11T01:00:56.395Z,0.70
2023-02-11T01:03:25.225Z,0.70
2023-02-11T01:05:52.742Z,0.60
2023-02-11T01:08:19.901Z,0.80
2023-02-11T01:10:53.652Z,0.50
2023-02-11T01:13:21.057Z,0.50
2023-02-11T01:15:48.236Z,0.50
2023-02-11T01:18:15.466Z,0.50
2023-02-11T01:20:42.393Z,0.50
2023-02-11T01:23:09.306Z,0.40
2023-02-11T01:25:36.483Z,0.50
2023-02-11T01:28:04.207Z,0.40
2023-02-11T01:30:31.357Z,0.40
2023-02-11T01:32:58.381Z,0.50
2023-02-11T01:35:25.537Z,0.50
2023-02-11T01:37:52.491Z,0.50
2023-02-11T01:40:19.598Z,0.50
2023-02-11T01:42:49.407Z,0.50
2023-02-11T01:45:36.394Z,0.50
2023-02-11T01:48:03.514Z,0.60
2023-02-11T01:50:31.088Z,0.60
2023-02-11T01:53:18.185Z,0.70
2023-02-11T01:56:05.190Z,0.80
2023-02-11T01:58:32.764Z,0.80
2023-02-11T02:01:01.089Z,0.80
2023-02-11T02:03:28.631Z,0.80
2023-02-11T02:05:59.963Z,0.80
2023-02-11T02:08:36.289Z,0.90
2023-02-11T02:11:03.605Z,0.90
2023-02-11T02:13:34.034Z,0.90
2023-02-11T02:16:07.878Z,0.90
2023-02-11T02:18:39.726Z,0.90
2023-02-11T02:21:25.454Z,1.00
2023-02-11T02:23:52.484Z,1.00
2023-02-11T02:26:35.694Z,1.00
2023-02-11T02:29:22.409Z,1.00
2023-02-11T02:32:08.172Z,1.00
2023-02-11T02:34:45.076Z,1.10
2023-02-11T02:37:18.091Z,1.10
2023-02-11T02:39:45.882Z,1.10
2023-02-11T02:42:13.203Z,1.10
2023-02-11T02:44:40.158Z,1.10
2023-02-11T02:47:07.135Z,1.10
2023-02-11T02:49:34.038Z,1.20
2023-02-11T02:52:00.979Z,1.20
2023-02-11T02:54:34.118Z,1.20
2023-02-11T02:57:19.564Z,1.20
2023-02-11T03:00:09.755Z,1.10
2023-02-11T03:02:42.015Z,1.00
2023-02-11T03:05:17.950Z,1.10
2023-02-11T03:07:47.838Z,1.10
2023-02-11T03:10:21.669Z,1.00
2023-02-11T03:12:48.827Z,1.10
2023-02-11T03:15:17.687Z,1.10
2023-02-11T03:17:47.450Z,1.10
2023-02-11T03:20:16.173Z,1.10
2023-02-11T03:22:46.513Z,1.10
2023-02-11T03:25:13.785Z,1.10
2023-02-11T03:27:52.370Z,1.10
2023-02-11T03:30:19.276Z,0.80
2023-02-11T03:32:56.158Z,1.10
2023-02-11T03:35:29.500Z,1.10
2023-02-11T03:37:56.435Z,1.10
2023-02-11T03:40:32.652Z,1.10
2023-02-11T03:43:26.156Z,1.10
2023-02-11T03:45:54.482Z,1.10
2023-02-11T03:48:23.773Z,1.10
2023-02-11T03:50:52.236Z,1.20
2023-02-11T03:53:20.736Z,1.20
2023-02-11T03:55:49.097Z,1.20
2023-02-11T03:58:16.253Z,1.20
2023-02-11T04:00:43.647Z,1.20
2023-02-11T04:03:10.851Z,1.20
2023-02-11T04:05:37.986Z,1.20
2023-02-11T04:08:05.431Z,1.20
2023-02-11T04:10:32.593Z,1.30
2023-02-11T04:12:59.512Z,1.20
2023-02-11T04:15:26.535Z,1.20
2023-02-11T04:17:53.486Z,1.20
2023-02-11T04:20:20.518Z,1.30
2023-02-11T04:22:47.446Z,1.20
2023-02-11T04:25:14.374Z,1.30
2023-02-11T04:27:41.400Z,1.30
2023-02-11T04:30:08.896Z,1.30
2023-02-11T04:32:35.865Z,1.30
2023-02-11T04:35:03.687Z,1.30
2023-02-11T04:37:30.709Z,1.30
2023-02-11T04:39:57.685Z,1.30
2023-02-11T04:42:24.875Z,1.20
2023-02-11T04:44:51.817Z,1.30
2023-02-11T04:47:18.820Z,1.30
2023-02-11T04:49:45.803Z,1.30
2023-02-11T04:52:12.728Z,1.20
2023-02-11T04:54:39.702Z,1.30
2023-02-11T04:57:06.889Z,1.30
2023-02-11T04:59:33.814Z,1.30
2023-02-11T05:02:00.775Z,1.20
2023-02-11T05:04:27.943Z,1.50
2023-02-11T05:06:56.094Z,1.30
2023-02-11T05:09:24.667Z,1.30
2023-02-11T05:11:51.596Z,1.30
2023-02-11T05:14:18.584Z,1.30
2023-02-11T05:16:45.545Z,1.30
2023-02-11T05:19:12.596Z,1.30
2023-02-11T05:21:42.341Z,1.30
2023-02-11T05:24:14.636Z,1.40
2023-02-11T05:26:41.611Z,1.40
2023-02-11T05:29:08.573Z,1.40
2023-02-11T05:31:35.556Z,1.40
2023-02-11T05:34:04.171Z,1.40
2023-02-11T05:36:33.342Z,1.50
2023-02-11T05:39:00.485Z,1.40
2023-02-11T05:41:27.491Z,1.00
2023-02-11T05:43:54.426Z,1.40
2023-02-11T05:46:21.427Z,1.40
2023-02-11T05:48:48.417Z,1.50
2023-02-11T05:51:15.390Z,1.50
2023-02-11T05:53:42.325Z,1.50
2023-02-11T05:56:10.571Z,1.50
2023-02-11T05:58:38.801Z,1.50
2023-02-11T06:01:05.859Z,1.50
2023-02-11T06:03:32.917Z,1.50
2023-02-11T06:05:59.930Z,1.60
2023-02-11T06:08:26.901Z,1.60
2023-02-11T06:10:53.871Z,1.60
2023-02-11T06:13:20.786Z,1.60
2023-02-11T06:15:55.863Z,1.60
2023-02-11T06:18:22.981Z,1.60
2023-02-11T06:20:49.952Z,1.60
2023-02-11T06:23:16.903Z,1.60
2023-02-11T06:25:43.790Z,1.60
2023-02-11T06:28:10.937Z,1.70
2023-02-11T06:30:38.010Z,1.60
2023-02-11T06:33:05.249Z,1.60
2023-02-11T06:35:33.596Z,1.70
2023-02-11T06:38:00.497Z,1.70
2023-02-11T06:40:27.479Z,1.70
2023-02-11T06:42:54.373Z,1.70
2023-02-11T06:45:21.349Z,1.80
2023-02-11T06:47:51.626Z,1.80
2023-02-11T06:50:18.920Z,1.80
2023-02-11T06:52:45.804Z,1.80
2023-02-11T06:55:12.860Z,1.90
2023-02-11T06:57:39.834Z,1.90
2023-02-11T07:00:07.019Z,1.90
2023-02-11T07:02:34.190Z,1.90
2023-02-11T07:05:01.124Z,2.00
2023-02-11T07:07:28.104Z,2.10
2023-02-11T07:09:55.224Z,2.10
2023-02-11T07:12:22.267Z,2.10
2023-02-11T07:14:49.286Z,2.10
2023-02-11T07:17:16.385Z,2.20
2023-02-11T07:19:43.310Z,2.20
2023-02-11T07:22:10.297Z,2.20
2023-02-11T07:24:37.195Z,2.20
2023-02-11T07:27:04.806Z,2.20
2023-02-11T07:29:31.766Z,2.30
2023-02-11T07:31:58.809Z,2.40
2023-02-11T07:34:25.864Z,2.30
2023-02-11T07:36:52.825Z,2.30
2023-02-11T07:39:21.941Z,2.40
2023-02-11T07:41:49.437Z,2.40
2023-02-11T07:44:17.141Z,2.50
2023-02-11T07:46:45.411Z,2.50
2023-02-11T07:49:12.856Z,2.50
2023-02-11T07:51:39.862Z,2.50
2023-02-11T07:54:06.809Z,2.50
2023-02-11T07:56:34.198Z,2.50
2023-02-11T07:59:01.993Z,2.60
2023-02-11T08:01:29.532Z,2.60
2023-02-11T08:03:57.210Z,2.60
2023-02-11T08:06:25.116Z,2.70
2023-02-11T08:08:52.150Z,2.70
2023-02-11T08:11:20.629Z,2.70
2023-02-11T08:13:47.901Z,2.70
2023-02-11T08:16:22.332Z,2.70
2023-02-11T08:18:50.136Z,2.80
2023-02-11T08:21:17.344Z,2.80
2023-02-11T08:23:44.784Z,2.80
2023-02-11T08:26:16.461Z,2.80
2023-02-11T08:28:44.324Z,2.90
2023-02-11T08:31:12.368Z,2.80
2023-02-11T08:33:41.070Z,2.90
2023-02-11T08:36:11.600Z,2.90
2023-02-11T08:38:38.945Z,2.90
2023-02-11T08:41:06.133Z,2.90
2023-02-11T08:43:33.576Z,3.00
2023-02-11T08:46:02.150Z,3.10
2023-02-11T08:48:30.345Z,3.00
2023-02-11T08:50:57.436Z,3.00
2023-02-11T08:53:24.956Z,3.10
2023-02-11T08:55:53.592Z,3.20
2023-02-11T08:58:21.051Z,3.20
2023-02-11T09:00:49.318Z,3.20
2023-02-11T09:03:16.854Z,3.20
2023-02-11T09:05:44.770Z,3.30
2023-02-11T09:08:11.796Z,3.30
2023-02-11T09:10:39.061Z,3.40
2023-02-11T09:13:06.171Z,3.60
2023-02-11T09:15:33.555Z,3.80
2023-02-11T09:18:00.935Z,4.00
2023-02-11T09:20:27.976Z,4.10
2023-02-11T09:22:56.711Z,4.10
2023-02-11T09:25:23.726Z,4.10
2023-02-11T09:27:51.511Z,4.10
2023-02-11T09:30:18.599Z,4.20
2023-02-11T09:32:45.552Z,4.20
2023-02-11T09:35:12.527Z,4.30
2023-02-11T09:37:39.466Z,4.30
2023-02-11T09:40:06.707Z,4.40
2023-02-11T09:42:36.518Z,4.40
2023-02-11T09:45:04.116Z,4.50
2023-02-11T09:47:32.801Z,4.60
2023-02-11T09:50:04.716Z,4.60
2023-02-11T09:52:43.800Z,4.70
2023-02-11T09:55:31.089Z,4.80
2023-02-11T09:57:58.243Z,4.90
2023-02-11T10:00:25.160Z,4.90
2023-02-11T10:03:07.099Z,5.00
2023-02-11T10:05:43.037Z,5.00
2023-02-11T10:08:19.048Z,5.10
2023-02-11T10:11:01.507Z,5.10
2023-02-11T10:13:34.748Z,5.00
2023-02-11T10:16:28.113Z,5.00
2023-02-11T10:19:21.499Z,5.00
2023-02-11T10:21:54.652Z,5.00
2023-02-11T10:24:21.876Z,5.00
2023-02-11T10:26:49.185Z,5.00
2023-02-11T10:29:31.452Z,5.00
2023-02-11T10:31:59.474Z,5.10
2023-02-11T10:34:26.628Z,5.10
2023-02-11T10:36:53.575Z,5.10
2023-02-11T10:39:21.949Z,5.10
2023-02-11T10:41:59.401Z,5.20
2023-02-11T10:44:52.703Z,5.00
2023-02-11T10:47:22.063Z,5.20
2023-02-11T10:49:49.260Z,5.20
2023-02-11T10:52:21.044Z,5.30
2023-02-11T10:55:01.861Z,5.20
2023-02-11T10:57:31.476Z,5.20
2023-02-11T11:00:00.399Z,5.20
2023-02-11T11:02:34.664Z,5.10
2023-02-11T11:05:04.296Z,5.20
2023-02-11T11:07:34.971Z,5.20
2023-02-11T11:10:25.483Z,5.10
2023-02-11T11:12:52.434Z,5.10
2023-02-11T11:15:21.875Z,5.20
2023-02-11T11:17:49.643Z,5.20
2023-02-11T11:20:21.968Z,5.20
2023-02-11T11:22:50.087Z,5.20
2023-02-11T11:25:24.497Z,5.20
2023-02-11T11:27:52.866Z,5.20
2023-02-11T11:30:20.133Z,5.20
2023-02-11T11:32:47.170Z,5.30
2023-02-11T11:35:30.307Z,5.30
2023-02-11T11:38:01.884Z,5.30
2023-02-11T11:40:30.183Z,5.40
2023-02-11T11:43:03.626Z,5.40
2023-02-11T11:45:30.577Z,5.40
2023-02-11T11:48:18.580Z,5.40
2023-02-11T11:50:47.778Z,5.50
2023-02-11T11:53:24.661Z,5.60
2023-02-11T11:56:11.846Z,5.30
2023-02-11T11:58:38.808Z,5.60
2023-02-11T12:01:28.807Z,5.50
2023-02-11T12:04:19.438Z,5.50
2023-02-11T12:06:55.718Z,5.50
2023-02-11T12:09:41.612Z,5.50
2023-02-11T12:12:20.980Z,5.50
2023-02-11T12:15:07.320Z,5.50
2023-02-11T12:17:48.054Z,5.50
2023-02-11T12:20:24.281Z,5.50
2023-02-11T12:23:09.952Z,5.40
2023-02-11T12:25:36.933Z,5.40
2023-02-11T12:28:16.337Z,5.40
2023-02-11T12:30:51.454Z,5.40
2023-02-11T12:33:18.634Z,5.50
2023-02-11T12:35:45.544Z,5.50
2023-02-11T12:38:25.696Z,5.50
2023-02-11T12:40:52.869Z,5.50
2023-02-11T12:43:20.027Z,5.50
2023-02-11T12:46:00.978Z,5.60
2023-02-11T12:48:38.562Z,5.60
2023-02-11T12:51:17.486Z,5.60
2023-02-11T12:53:58.088Z,5.50
2023-02-11T12:56:43.332Z,5.50
2023-02-11T12:59:17.533Z,5.50
2023-02-11T13:01:45.022Z,5.50
2023-02-11T13:04:21.095Z,5.50
2023-02-11T13:06:57.591Z,5.50
2023-02-11T13:09:31.637Z,5.50
2023-02-11T13:12:20.708Z,5.60
2023-02-11T13:14:48.730Z,5.60
2023-02-11T13:17:22.538Z,5.60
2023-02-11T13:19:53.436Z,5.60
2023-02-11T13:22:24.363Z,5.60
2023-02-11T13:24:55.676Z,5.80
2023-02-11T13:27:41.487Z,5.70
2023-02-11T13:30:22.088Z,5.60
2023-02-11T13:32:55.665Z,5.60
2023-02-11T13:35:30.540Z,5.60
2023-02-11T13:37:58.698Z,5.60
2023-02-11T13:40:27.066Z,5.60
2023-02-11T13:42:58.518Z,5.60
2023-02-11T13:45:31.689Z,5.60
2023-02-11T13:48:01.668Z,5.60
2023-02-11T13:50:29.558Z,5.60
2023-02-11T13:52:58.385Z,5.60
2023-02-11T13:55:27.616Z,5.60
2023-02-11T13:58:06.841Z,5.60
2023-02-11T14:00:33.804Z,5.50
2023-02-11T14:03:45.724Z,5.60
2023-02-11T14:06:32.588Z,5.50
2023-02-11T14:09:09.331Z,5.50
2023-02-11T14:11:42.345Z,5.60
2023-02-11T14:14:16.661Z,5.50
2023-02-11T14:17:01.620Z,5.50
2023-02-11T14:19:32.368Z,5.50
2023-02-11T14:22:16.628Z,5.50
2023-02-11T14:25:02.849Z,5.60
2023-02-11T14:27:56.839Z,5.50
2023-02-11T14:30:35.271Z,5.50
2023-02-11T14:33:05.295Z,5.50
2023-02-11T14:35:37.174Z,5.50
2023-02-11T14:38:04.113Z,5.50
2023-02-11T14:40:33.318Z,5.40
2023-02-11T14:43:12.553Z,5.50
2023-02-11T14:45:39.837Z,5.50
2023-02-11T14:48:08.520Z,5.40
2023-02-11T14:50:41.586Z,5.40
2023-02-11T14:53:13.250Z,5.40
2023-02-11T14:55:42.037Z,5.40
2023-02-11T14:58:20.196Z,5.40
2023-02-11T15:00:52.062Z,5.40
2023-02-11T15:03:25.403Z,5.30
2023-02-11T15:06:12.645Z,5.30
2023-02-11T15:08:42.702Z,5.30
2023-02-11T15:11:12.143Z,5.20
2023-02-11T15:13:39.246Z,5.20
2023-02-11T15:16:07.575Z,5.10
2023-02-11T15:18:39.322Z,5.10
2023-02-11T15:21:06.972Z,5.10
2023-02-11T15:23:33.986Z,5.00
2023-02-11T15:26:05.597Z,4.90
2023-02-11T15:28:33.759Z,4.90
2023-02-11T15:31:17.054Z,4.90
2023-02-11T15:33:44.078Z,4.90
2023-02-11T15:36:11.538Z,4.90
2023-02-11T15:38:38.500Z,4.80
2023-02-11T15:41:07.568Z,4.80
2023-02-11T15:43:41.759Z,4.80
2023-02-11T15:46:09.809Z,4.80
2023-02-11T15:48:38.782Z,4.80
2023-02-11T15:51:12.370Z,4.70
2023-02-11T15:53:43.408Z,4.70
2023-02-11T15:56:15.958Z,4.70
2023-02-11T15:58:44.272Z,4.80
2023-02-11T16:01:12.142Z,4.80
2023-02-11T16:03:40.715Z,4.70
2023-02-11T16:06:16.766Z,4.80
2023-02-11T16:08:55.869Z,4.70
2023-02-11T16:11:26.186Z,4.70
2023-02-11T16:13:53.631Z,4.70
2023-02-11T16:16:25.283Z,4.70
2023-02-11T16:19:04.375Z,4.70
2023-02-11T16:21:39.518Z,4.60
2023-02-11T16:24:18.664Z,4.60
2023-02-11T16:26:47.810Z,4.60
2023-02-11T16:29:15.995Z,4.50
2023-02-11T16:31:44.490Z,4.60
2023-02-11T16:34:15.667Z,4.60
2023-02-11T16:36:42.600Z,4.60
2023-02-11T16:39:10.674Z,4.60
2023-02-11T16:41:37.669Z,4.60
2023-02-11T16:44:04.896Z,4.60
2023-02-11T16:46:32.337Z,4.60
2023-02-11T16:49:04.264Z,4.60
2023-02-11T16:51:31.390Z,4.60
2023-02-11T16:53:58.341Z,4.60
2023-02-11T16:56:25.282Z,4.70
2023-02-11T16:58:52.241Z,4.70
2023-02-11T17:01:19.265Z,4.70
2023-02-11T17:03:46.356Z,4.70
2023-02-11T17:06:13.670Z,4.70
2023-02-11T17:08:41.547Z,4.80
2023-02-11T17:11:08.483Z,4.80
2023-02-11T17:13:36.530Z,4.80
2023-02-11T17:16:03.513Z,4.60
2023-02-11T17:18:30.462Z,4.80
2023-02-11T17:20:57.432Z,4.80
2023-02-11T17:23:24.340Z,4.80
2023-02-11T17:25:57.276Z,4.80
2023-02-11T17:28:24.234Z,4.90
2023-02-11T17:30:51.215Z,4.80
2023-02-11T17:33:19.055Z,4.90
2023-02-11T17:35:46.265Z,4.90
2023-02-11T17:38:13.177Z,4.90
2023-02-11T17:40:40.139Z,4.90
2023-02-11T17:43:07.159Z,4.90
2023-02-11T17:45:34.354Z,4.90
2023-02-11T17:48:01.596Z,4.90
2023-02-11T17:50:29.524Z,4.90
2023-02-11T17:52:56.854Z,4.90
2023-02-11T17:55:23.767Z,5.00
2023-02-11T17:57:50.693Z,4.90
2023-02-11T18:00:17.901Z,4.90
2023-02-11T18:02:44.799Z,4.90
2023-02-11T18:05:11.741Z,4.90
2023-02-11T18:07:38.765Z,5.10
2023-02-11T18:10:06.645Z,4.90
2023-02-11T18:12:33.586Z,4.90
2023-02-11T18:15:00.572Z,5.10
2023-02-11T18:17:27.832Z,4.90
2023-02-11T18:19:55.709Z,4.90
2023-02-11T18:22:23.264Z,4.90
2023-02-11T18:24:54.172Z,4.90
2023-02-11T18:27:21.860Z,4.90
2023-02-11T18:29:48.849Z,4.90
2023-02-11T18:32:15.793Z,4.90
2023-02-11T18:34:43.046Z,4.90
2023-02-11T18:37:10.446Z,4.90
2023-02-11T18:39:37.419Z,4.90
2023-02-11T18:42:04.487Z,4.90
2023-02-11T18:44:31.519Z,5.00
2023-02-11T18:46:58.573Z,5.00
2023-02-11T18:49:25.560Z,4.90
2023-02-11T18:51:52.852Z,4.90
2023-02-11T18:54:19.852Z,4.90
2023-02-11T18:56:46.810Z,4.90
2023-02-11T18:59:13.993Z,4.80
2023-02-11T19:01:43.597Z,5.00
2023-02-11T19:04:11.538Z,4.90
2023-02-11T19:06:38.894Z,4.80
2023-02-11T19:09:09.902Z,4.80
2023-02-11T19:11:54.362Z,4.80
2023-02-11T19:14:22.763Z,4.90
2023-02-11T19:16:50.803Z,4.90
2023-02-11T19:19:18.048Z,4.90
2023-02-11T19:21:45.642Z,4.90
2023-02-11T19:24:13.350Z,4.90
2023-02-11T19:26:40.263Z,4.90
2023-02-11T19:29:07.377Z,4.90
2023-02-11T19:31:34.756Z,4.90
2023-02-11T19:34:02.802Z,4.90
2023-02-11T19:36:29.991Z,4.90
2023-02-11T19:38:59.012Z,4.90
2023-02-11T19:41:25.905Z,4.90
2023-02-11T19:43:53.528Z,4.90
2023-02-11T19:46:21.278Z,4.90
2023-02-11T19:48:48.762Z,4.90
2023-02-11T19:51:16.339Z,4.90
2023-02-11T19:53:43.895Z,4.90
2023-02-11T19:56:11.129Z,4.90
2023-02-11T19:58:38.457Z,4.90
2023-02-11T20:01:08.445Z,4.90
2023-02-11T20:03:35.555Z,4.90
2023-02-11T20:06:09.615Z,4.90
2023-02-11T20:08:36.628Z,4.90
2023-02-11T20:11:07.600Z,4.90
2023-02-11T20:13:34.972Z,4.90
2023-02-11T20:16:05.898Z,4.90
2023-02-11T20:18:32.947Z,5.00
2023-02-11T20:21:03.148Z,4.90
2023-02-11T20:23:30.115Z,5.00
2023-02-11T20:25:57.105Z,5.00
2023-02-11T20:28:24.202Z,5.00
2023-02-11T20:30:58.135Z,5.00
2023-02-11T20:33:25.218Z,5.00
2023-02-11T20:36:12.636Z,5.00
2023-02-11T20:38:39.572Z,5.00
2023-02-11T20:41:14.562Z,5.00
2023-02-11T20:43:41.961Z,5.00
2023-02-11T20:46:08.994Z,5.10
2023-02-11T20:48:36.096Z,5.10
2023-02-11T20:51:11.156Z,5.10
2023-02-11T20:53:38.891Z,5.10
2023-02-11T20:56:06.882Z,5.10
2023-02-11T20:58:33.919Z,5.10
2023-02-11T21:01:11.221Z,5.10
2023-02-11T21:03:38.332Z,5.10
2023-02-11T21:06:05.385Z,5.10
2023-02-11T21:08:32.357Z,5.10
2023-02-11T21:10:59.423Z,5.10
2023-02-11T21:13:27.414Z,5.20
2023-02-11T21:15:55.954Z,5.20
2023-02-11T21:18:24.124Z,5.20
2023-02-11T21:20:51.492Z,5.20
2023-02-11T21:23:18.403Z,5.20
2023-02-11T21:25:45.487Z,5.20
2023-02-11T21:28:12.631Z,5.20
2023-02-11T21:30:40.032Z,5.20
2023-02-11T21:33:07.127Z,5.20
2023-02-11T21:35:34.779Z,5.20
2023-02-11T21:38:02.097Z,5.20
2023-02-11T21:40:29.134Z,5.30
2023-02-11T21:42:56.495Z,5.30
2023-02-11T21:45:24.145Z,5.30
2023-02-11T21:47:51.511Z,5.30
2023-02-11T21:50:18.817Z,5.30
2023-02-11T21:52:46.045Z,5.20
2023-02-11T21:55:13.056Z,4.90
2023-02-11T21:57:39.984Z,5.20
2023-02-11T22:00:07.863Z,5.20
2023-02-11T22:02:37.296Z,5.20
2023-02-11T22:05:04.390Z,5.20
2023-02-11T22:07:31.391Z,5.30
2023-02-11T22:09:59.375Z,5.30
2023-02-11T22:12:26.368Z,5.30
2023-02-11T22:14:53.269Z,5.30
2023-02-11T22:17:22.594Z,5.30
2023-02-11T22:19:49.773Z,5.30
2023-02-11T22:22:18.408Z,5.30
2023-02-11T22:24:46.178Z,5.30
2023-02-11T22:27:13.551Z,5.30
2023-02-11T22:29:40.592Z,5.20
2023-02-11T22:32:07.835Z,5.30
2023-02-11T22:34:34.752Z,5.30
2023-02-11T22:37:02.526Z,5.30
2023-02-11T22:39:29.642Z,5.30
2023-02-11T22:41:57.021Z,5.30
2023-02-11T22:44:24.759Z,5.30
2023-02-11T22:46:52.119Z,5.30
2023-02-11T22:49:19.676Z,5.30
2023-02-11T22:51:46.946Z,5.30
2023-02-11T22:54:15.144Z,5.30
2023-02-11T22:56:42.182Z,5.30
2023-02-11T22:59:12.197Z,5.30
2023-02-11T23:01:39.334Z,5.30
2023-02-11T23:04:07.307Z,5.20
2023-02-11T23:06:34.918Z,5.20
2023-02-11T23:09:03.524Z,5.30
2023-02-11T23:11:30.968Z,5.30
2023-02-11T23:13:58.155Z,5.30
2023-02-11T23:16:26.779Z,5.30
2023-02-11T23:18:54.402Z,5.30
2023-02-11T23:21:23.019Z,5.30
2023-02-11T23:23:53.529Z,5.30
2023-02-11T23:26:20.626Z,5.30
2023-02-11T23:28:47.790Z,5.30
2023-02-11T23:31:16.446Z,5.30
2023-02-11T23:33:43.687Z,5.30
2023-02-11T23:36:10.774Z,5.00
2023-02-11T23:38:37.999Z,5.30
2023-02-11T23:41:05.117Z,5.30
2023-02-11T23:43:32.169Z,5.30
2023-02-11T23:45:59.372Z,5.30
2023-02-11T23:48:26.640Z,5.40
2023-02-11T23:50:53.665Z,5.30
2023-02-11T23:53:20.593Z,5.30
2023-02-11T23:55:47.538Z,5.30
2023-02-11T23:58:14.795Z,5.40
